Time;durP1;ratioP1;P1;durP2;ratioP2;P2;SDS_P1;SDS_P2;PMS_P1;PMS_P2;Temp;Humidity;BMP_temperature;BMP_pressure;BME280_temperature;BME280_humidity;BME280_pressure;Samples;Min_cycle;Max_cycle;Signal;HPM_P1;HPM_P2
2023/12/14 00:01:31;;;;;;;29.90;19.67;;;;;;;7.39;67.77;93600.22;4166500;28;20063;-68
2023/12/14 00:03:33;;;;;;;28.70;19.83;;;;;;;7.44;67.98;93620.53;4167339;28;20050;-68
2023/12/14 00:05:35;;;;;;;27.77;18.70;;;;;;;7.31;67.96;93581.97;4169013;28;20045;-66
2023/12/14 00:07:37;;;;;;;30.38;19.58;;;;;;;6.61;70.44;93598.16;4174980;28;20056;-67
2023/12/14 00:09:39;;;;;;;26.10;18.80;;;;;;;6.72;70.62;93609.06;4169567;28;20061;-68
2023/12/14 00:11:41;;;;;;;25.45;18.17;;;;;;;6.68;69.84;93612.16;4189606;28;20362;-70
2023/12/14 00:13:43;;;;;;;28.15;20.55;;;;;;;6.62;70.67;93605.78;4165726;28;20085;-69
2023/12/14 00:15:45;;;;;;;25.85;17.98;;;;;;;6.79;70.49;93611.81;4175086;28;20143;-69
2023/12/14 00:17:47;;;;;;;22.85;18.35;;;;;;;6.98;69.77;93623.72;4177664;28;20098;-69
2023/12/14 00:19:49;;;;;;;30.42;18.90;;;;;;;7.13;68.74;93605.63;4162266;28;20060;-65
2023/12/14 00:21:51;;;;;;;26.35;18.48;;;;;;;7.04;69.38;93614.44;4164039;28;20057;-67
2023/12/14 00:23:52;;;;;;;28.30;19.38;;;;;;;7.15;69.12;93606.28;4167039;28;20119;-68
2023/12/14 00:25:54;;;;;;;26.45;18.75;;;;;;;7.27;68.42;93628.41;4176942;28;20484;-67
2023/12/14 00:27:56;;;;;;;26.30;18.15;;;;;;;7.36;68.38;93632.63;4178485;28;20048;-68
2023/12/14 00:29:58;;;;;;;23.55;18.23;;;;;;;7.40;68.10;93607.06;4176404;28;20048;-67
2023/12/14 00:32:00;;;;;;;27.58;19.17;;;;;;;7.49;67.88;93600.84;4166719;28;20053;-67
2023/12/14 00:34:02;;;;;;;27.27;18.67;;;;;;;7.57;67.06;93628.66;4170243;28;20320;-66
2023/12/14 00:36:05;;;;;;;28.02;19.40;;;;;;;7.60;67.44;93620.53;4162960;28;20049;-67
2023/12/14 00:38:06;;;;;;;27.92;19.48;;;;;;;7.68;67.02;93604.88;4175374;28;20415;-66
2023/12/14 00:40:09;;;;;;;26.55;19.02;;;;;;;7.67;66.51;93603.22;4164569;28;20052;-68
2023/12/14 00:42:11;;;;;;;28.02;19.45;;;;;;;7.64;67.30;93600.97;4173420;28;20057;-67
2023/12/14 00:44:13;;;;;;;32.70;19.40;;;;;;;7.50;67.27;93620.69;4174890;28;20380;-68
2023/12/14 00:46:15;;;;;;;28.73;19.10;;;;;;;7.37;68.13;93621.22;4163854;28;20057;-68
2023/12/14 00:48:17;;;;;;;29.27;18.65;;;;;;;7.38;67.52;93615.03;4176655;28;20060;-67
2023/12/14 00:50:19;;;;;;;27.33;18.73;;;;;;;7.43;67.88;93611.13;4168552;28;20496;-70
2023/12/14 00:52:21;;;;;;;26.67;18.27;;;;;;;7.28;68.14;93603.97;4169194;28;20516;-66
2023/12/14 00:54:23;;;;;;;25.95;18.83;;;;;;;7.34;68.17;93612.94;4166428;28;20805;-68
2023/12/14 00:56:25;;;;;;;27.08;17.52;;;;;;;7.43;68.24;93593.69;4169363;28;20059;-67
2023/12/14 00:58:27;;;;;;;24.33;17.63;;;;;;;7.53;67.68;93617.78;4172555;28;20500;-68
2023/12/14 01:00:30;;;;;;;26.27;18.27;;;;;;;7.43;67.06;93603.31;4174636;28;20045;-70
2023/12/14 01:02:32;;;;;;;24.27;17.43;;;;;;;7.36;67.43;93626.59;4178158;28;20471;-68
2023/12/14 01:04:35;;;;;;;23.10;16.92;;;;;;;7.15;68.02;93603.69;4176843;28;20277;-69
2023/12/14 01:06:37;;;;;;;23.98;17.38;;;;;;;6.83;69.32;93602.72;4171642;28;20408;-67
2023/12/14 01:08:38;;;;;;;26.75;18.02;;;;;;;6.89;69.41;93622.91;4175471;28;20068;-69
2023/12/14 01:10:40;;;;;;;23.63;16.98;;;;;;;7.02;69.60;93613.78;4173352;28;20114;-68
2023/12/14 01:12:42;;;;;;;24.38;17.45;;;;;;;7.11;68.88;93604.97;4176001;28;20445;-66
2023/12/14 01:14:44;;;;;;;23.50;17.80;;;;;;;6.76;68.62;93596.53;4176240;28;20056;-68
2023/12/14 01:16:46;;;;;;;24.80;16.65;;;;;;;6.80;69.18;93623.88;4175492;28;20055;-66
2023/12/14 01:18:48;;;;;;;20.75;16.10;;;;;;;6.93;69.95;93608.56;4172918;28;20431;-67
2023/12/14 01:20:50;;;;;;;22.98;17.38;;;;;;;7.02;69.41;93611.19;4168537;28;20456;-67
2023/12/14 01:22:52;;;;;;;23.58;17.15;;;;;;;6.98;69.37;93601.06;4176765;28;20056;-67
2023/12/14 01:24:53;;;;;;;24.20;16.33;;;;;;;7.09;68.57;93619.94;4175107;28;20131;-68
2023/12/14 01:26:55;;;;;;;25.15;17.50;;;;;;;7.17;67.92;93599.13;4166227;28;20106;-66
2023/12/14 01:28:58;;;;;;;21.30;16.35;;;;;;;7.25;68.33;93603.47;4175847;28;20052;-67
2023/12/14 01:31:00;;;;;;;20.92;15.68;;;;;;;7.30;68.02;93593.41;4174928;28;20044;-67
2023/12/14 01:33:02;;;;;;;24.27;16.92;;;;;;;7.15;68.06;93608.88;4177001;28;20063;-68
2023/12/14 01:35:05;;;;;;;22.40;16.27;;;;;;;7.14;68.65;93607.25;4174167;28;20432;-69
2023/12/14 01:37:07;;;;;;;26.98;17.45;;;;;;;7.17;68.29;93602.53;4173816;28;20053;-67
2023/12/14 01:39:08;;;;;;;23.67;17.60;;;;;;;7.26;67.62;93608.53;4175052;28;20045;-66
2023/12/14 01:41:10;;;;;;;26.48;17.38;;;;;;;7.31;67.66;93621.06;4177398;28;20527;-69
2023/12/14 01:43:13;;;;;;;23.75;17.40;;;;;;;7.35;67.66;93601.50;4185542;28;20114;-69
2023/12/14 01:45:16;;;;;;;25.30;17.30;;;;;;;7.39;67.00;93593.19;4175163;28;20052;-69
2023/12/14 01:47:18;;;;;;;24.15;17.98;;;;;;;7.40;67.52;93588.81;4179375;28;20435;-67
2023/12/14 01:49:20;;;;;;;23.02;17.10;;;;;;;7.42;67.64;93606.88;4180514;28;20103;-68
2023/12/14 01:51:22;;;;;;;23.35;16.90;;;;;;;7.41;67.36;93616.50;4180684;28;20049;-67
2023/12/14 01:53:24;;;;;;;26.98;19.05;;;;;;;7.13;67.41;93572.56;4179852;28;20463;-69
2023/12/14 01:55:26;;;;;;;25.33;17.40;;;;;;;7.08;68.45;93600.13;4172270;28;20279;-67
2023/12/14 01:57:29;;;;;;;22.80;17.55;;;;;;;7.18;68.59;93590.31;4178782;28;20089;-69
2023/12/14 01:59:31;;;;;;;25.20;17.60;;;;;;;7.28;67.86;93598.75;4171319;28;20440;-68
2023/12/14 02:01:44;;;;;;;25.92;16.90;;;;;;;7.32;67.79;93592.25;4177535;28;20045;-70
2023/12/14 02:03:48;;;;;;;26.73;17.63;;;;;;;7.29;67.95;93595.19;4179472;28;20099;-68
2023/12/14 02:05:50;;;;;;;21.85;15.82;;;;;;;7.31;67.61;93585.44;4174920;28;20057;-68
2023/12/14 02:07:52;;;;;;;23.85;16.52;;;;;;;7.33;67.06;93586.03;4179211;28;20045;-68
2023/12/14 02:09:54;;;;;;;24.02;16.42;;;;;;;7.36;67.62;93564.88;4178240;28;20060;-67
2023/12/14 02:11:56;;;;;;;24.52;16.65;;;;;;;6.93;68.79;93579.94;4190311;28;20079;-68
2023/12/14 02:13:58;;;;;;;21.98;15.90;;;;;;;6.96;69.14;93584.81;4173459;28;20115;-68
2023/12/14 02:15:59;;;;;;;22.88;15.98;;;;;;;6.70;69.33;93576.38;4177665;28;20051;-67
2023/12/14 02:18:01;;;;;;;20.70;14.93;;;;;;;6.76;70.08;93580.94;4169065;28;20052;-69
2023/12/14 02:20:05;;;;;;;19.38;15.45;;;;;;;6.76;69.54;93562.72;4174628;28;20512;-69
2023/12/14 02:22:07;;;;;;;20.13;15.25;;;;;;;6.59;70.43;93568.91;4176961;28;20375;-68
2023/12/14 02:24:08;;;;;;;24.58;15.02;;;;;;;6.74;70.29;93568.06;4177958;28;20519;-67
2023/12/14 02:26:11;;;;;;;21.58;15.40;;;;;;;6.92;69.92;93572.28;4174748;28;20444;-67
2023/12/14 02:28:13;;;;;;;20.45;14.88;;;;;;;6.86;69.70;93554.72;4178275;28;20057;-68
2023/12/14 02:30:15;;;;;;;18.85;14.38;;;;;;;6.96;69.76;93566.56;4176847;28;20052;-66
2023/12/14 02:32:17;;;;;;;20.70;14.82;;;;;;;7.12;69.22;93576.19;4168293;28;20053;-68
2023/12/14 02:34:20;;;;;;;18.52;13.80;;;;;;;7.21;68.74;93553.53;4171340;28;20103;-69
2023/12/14 02:36:22;;;;;;;18.08;13.82;;;;;;;7.29;68.80;93570.91;4177614;28;20044;-69
2023/12/14 02:38:24;;;;;;;19.00;13.48;;;;;;;7.36;68.37;93566.69;4176388;28;20160;-69
2023/12/14 02:40:26;;;;;;;19.30;14.13;;;;;;;7.36;68.08;93556.25;4173212;28;20044;-70
2023/12/14 02:42:28;;;;;;;20.50;13.90;;;;;;;7.39;68.26;93585.38;4175593;28;20049;-68
2023/12/14 02:44:30;;;;;;;19.00;13.75;;;;;;;7.38;67.64;93582.97;4176199;28;20140;-69
2023/12/14 02:46:32;;;;;;;21.30;14.20;;;;;;;7.46;67.28;93574.28;4172628;28;20045;-69
2023/12/14 02:48:34;;;;;;;20.23;14.38;;;;;;;7.42;67.69;93571.22;4174182;28;20480;-69
2023/12/14 02:50:36;;;;;;;17.63;13.27;;;;;;;7.49;67.65;93592.22;4179026;28;20055;-67
2023/12/14 02:52:38;;;;;;;17.30;12.90;;;;;;;7.52;67.63;93587.47;4179188;28;20049;-68
2023/12/14 02:54:40;;;;;;;18.48;13.25;;;;;;;7.52;67.69;93568.41;4175195;28;20080;-67
2023/12/14 02:56:42;;;;;;;20.35;12.55;;;;;;;7.52;67.30;93590.06;4173585;28;20404;-66
2023/12/14 02:58:44;;;;;;;17.38;12.35;;;;;;;7.56;67.59;93598.38;4175789;28;20167;-67
2023/12/14 03:00:46;;;;;;;16.88;12.45;;;;;;;7.63;66.94;93578.47;4178985;28;20475;-67
2023/12/14 03:02:48;;;;;;;15.85;11.98;;;;;;;7.67;67.31;93590.19;4179414;28;20517;-67
2023/12/14 03:04:50;;;;;;;17.60;10.75;;;;;;;7.74;66.33;93600.75;4178916;28;20049;-68
2023/12/14 03:06:52;;;;;;;19.13;11.73;;;;;;;7.74;66.65;93596.38;4177188;28;20230;-67
2023/12/14 03:08:54;;;;;;;15.35;10.82;;;;;;;7.77;67.15;93585.59;4179600;28;20045;-67
2023/12/14 03:10:55;;;;;;;15.32;11.02;;;;;;;7.74;66.47;93566.84;4177347;28;20056;-67
2023/12/14 03:12:57;;;;;;;15.23;10.82;;;;;;;7.79;66.78;93575.81;4177684;28;20077;-67
2023/12/14 03:14:59;;;;;;;14.43;10.43;;;;;;;7.83;66.64;93570.25;4168410;28;20076;-69
2023/12/14 03:17:02;;;;;;;13.77;10.27;;;;;;;7.87;66.65;93574.97;4171705;28;20546;-67
2023/12/14 03:19:04;;;;;;;15.35;10.68;;;;;;;7.91;66.40;93547.53;4169844;28;20107;-67
2023/12/14 03:21:06;;;;;;;14.60;11.02;;;;;;;7.84;66.11;93558.84;4176568;28;20045;-67
2023/12/14 03:23:08;;;;;;;14.43;10.15;;;;;;;7.85;66.41;93555.25;4171975;28;20057;-68
2023/12/14 03:25:10;;;;;;;15.75;10.50;;;;;;;7.93;66.55;93552.59;4169764;28;20053;-67
2023/12/14 03:27:12;;;;;;;14.10;9.82;;;;;;;7.98;66.19;93560.75;4174307;28;20049;-68
2023/12/14 03:29:14;;;;;;;13.43;8.85;;;;;;;8.00;66.24;93558.75;4174555;28;20104;-67
2023/12/14 03:31:16;;;;;;;13.38;9.60;;;;;;;8.03;66.23;93553.19;4164390;28;20049;-68
2023/12/14 03:33:18;;;;;;;14.95;10.82;;;;;;;8.01;65.88;93544.75;4168834;28;20045;-67
2023/12/14 03:35:20;;;;;;;13.25;9.57;;;;;;;8.04;65.75;93539.16;4176826;28;20099;-68
2023/12/14 03:37:22;;;;;;;12.63;9.45;;;;;;;8.04;65.40;93535.75;4166619;28;20063;-67
2023/12/14 03:39:23;;;;;;;11.95;9.45;;;;;;;8.09;65.75;93530.84;4164972;28;20210;-70
2023/12/14 03:41:25;;;;;;;14.02;10.00;;;;;;;7.96;65.71;93536.63;4166923;28;20054;-67
2023/12/14 03:43:27;;;;;;;13.23;9.30;;;;;;;7.94;66.19;93522.94;4175541;28;20087;-67
2023/12/14 03:45:29;;;;;;;14.57;10.20;;;;;;;7.96;65.67;93528.81;4174797;28;20053;-68
2023/12/14 03:47:31;;;;;;;15.63;9.57;;;;;;;7.81;66.73;93523.50;4165812;28;20079;-68
2023/12/14 03:49:39;;;;;;;11.48;8.48;;;;;;;7.85;67.08;93535.22;4178477;28;20132;-69
2023/12/14 03:51:41;;;;;;;13.32;9.50;;;;;;;7.85;66.67;93526.56;4193467;28;20162;-68
2023/12/14 03:53:43;;;;;;;15.18;9.70;;;;;;;7.70;66.46;93503.00;4193636;28;20047;-68
2023/12/14 03:55:46;;;;;;;13.02;9.98;;;;;;;7.63;67.30;93518.53;4177202;28;20084;-69
2023/12/14 03:57:48;;;;;;;13.25;9.88;;;;;;;7.61;67.25;93512.66;4192708;28;20150;-69
2023/12/14 03:59:50;;;;;;;13.73;10.30;;;;;;;7.55;67.94;93527.19;4178738;28;20045;-68
2023/12/14 04:01:52;;;;;;;12.00;9.80;;;;;;;7.50;67.86;93521.66;4178791;28;20087;-69
2023/12/14 04:03:53;;;;;;;13.05;9.38;;;;;;;7.54;67.97;93522.16;4176932;28;20455;-69
2023/12/14 04:05:55;;;;;;;14.43;10.18;;;;;;;7.59;68.20;93514.63;4175690;28;20127;-67
2023/12/14 04:07:57;;;;;;;14.73;10.32;;;;;;;7.69;68.21;93528.28;4167189;28;20052;-70
2023/12/14 04:09:59;;;;;;;13.00;9.48;;;;;;;7.77;66.94;93537.84;4162538;28;20452;-67
2023/12/14 04:12:01;;;;;;;13.23;10.15;;;;;;;7.82;66.86;93534.75;4175517;28;20064;-68
2023/12/14 04:14:03;;;;;;;17.27;10.15;;;;;;;7.85;66.93;93531.78;4163822;28;20103;-69
2023/12/14 04:16:06;;;;;;;14.43;9.98;;;;;;;7.85;66.85;93550.88;4163094;28;20050;-68
2023/12/14 04:18:08;;;;;;;15.38;10.20;;;;;;;7.87;67.01;93550.66;4172595;28;20051;-68
2023/12/14 04:20:10;;;;;;;12.48;9.48;;;;;;;7.79;66.73;93536.69;4175753;28;20083;-68
2023/12/14 04:22:12;;;;;;;15.50;10.52;;;;;;;7.68;67.28;93555.34;4176366;28;20052;-67
2023/12/14 04:24:14;;;;;;;11.38;9.15;;;;;;;7.63;67.69;93551.59;4175756;28;20106;-68
2023/12/14 04:26:16;;;;;;;13.70;9.75;;;;;;;7.65;67.58;93547.03;4177308;28;20471;-68
2023/12/14 04:28:17;;;;;;;12.52;9.23;;;;;;;7.67;68.01;93543.25;4165811;28;20081;-68
2023/12/14 04:30:19;;;;;;;10.30;8.77;;;;;;;7.70;67.28;93537.72;4176290;28;20549;-69
2023/12/14 04:32:21;;;;;;;11.60;9.15;;;;;;;7.74;67.19;93533.81;4167695;28;20103;-68
2023/12/14 04:34:23;;;;;;;12.20;10.02;;;;;;;7.77;67.80;93532.66;4175748;28;20064;-69
2023/12/14 04:36:25;;;;;;;12.07;9.57;;;;;;;7.78;67.55;93550.69;4178083;28;20503;-69
2023/12/14 04:38:27;;;;;;;16.65;8.85;;;;;;;7.84;67.09;93540.59;4176346;28;20049;-67
2023/12/14 04:40:29;;;;;;;10.75;8.85;;;;;;;7.72;67.53;93556.63;4176623;28;20056;-68
2023/12/14 04:42:31;;;;;;;10.52;8.20;;;;;;;7.71;67.64;93554.19;4169587;28;20071;-69
2023/12/14 04:44:33;;;;;;;13.65;8.48;;;;;;;7.53;68.07;93525.75;4168203;28;20051;-69
2023/12/14 04:46:35;;;;;;;12.00;8.15;;;;;;;7.53;67.95;93542.19;4173171;28;20045;-70
2023/12/14 04:48:37;;;;;;;13.43;8.43;;;;;;;7.50;68.29;93531.28;4172907;28;20499;-67
2023/12/14 04:50:39;;;;;;;11.70;8.70;;;;;;;7.52;68.06;93540.56;4176049;28;20546;-68
2023/12/14 04:52:42;;;;;;;11.73;7.97;;;;;;;7.65;67.94;93549.63;4170355;28;20049;-67
2023/12/14 04:54:44;;;;;;;13.68;8.77;;;;;;;7.58;67.84;93555.53;4168941;28;20048;-69
2023/12/14 04:56:46;;;;;;;14.63;8.23;;;;;;;7.56;68.24;93559.28;4162873;28;20058;-68
2023/12/14 04:58:48;;;;;;;11.98;8.85;;;;;;;7.42;68.02;93546.94;4184277;28;20140;-67
2023/12/14 05:00:50;;;;;;;13.80;8.13;;;;;;;7.38;68.91;93547.28;4162239;28;20086;-69
2023/12/14 05:02:52;;;;;;;13.80;8.20;;;;;;;7.53;68.44;93557.03;4168567;28;20080;-69
2023/12/14 05:04:54;;;;;;;15.15;8.95;;;;;;;7.58;68.28;93549.50;4166645;28;20050;-69
2023/12/14 05:06:56;;;;;;;12.60;8.48;;;;;;;7.54;67.59;93543.81;4164139;28;20057;-71
2023/12/14 05:08:58;;;;;;;13.15;9.60;;;;;;;7.51;68.12;93549.38;4175946;28;20057;-69
2023/12/14 05:11:00;;;;;;;11.73;8.50;;;;;;;7.55;68.34;93539.41;4172727;28;20045;-67
2023/12/14 05:13:02;;;;;;;15.90;8.70;;;;;;;7.61;67.75;93546.53;4170903;28;20300;-68
2023/12/14 05:15:07;;;;;;;15.30;9.70;;;;;;;7.70;67.12;93548.16;4177186;28;20048;-69
2023/12/14 05:17:09;;;;;;;14.52;10.82;;;;;;;7.57;68.06;93537.44;4164539;28;20451;-70
2023/12/14 05:19:12;;;;;;;14.82;9.68;;;;;;;7.57;68.45;93547.88;4176106;28;20078;-68
2023/12/14 05:21:17;;;;;;;15.00;9.30;;;;;;;7.65;68.15;93532.19;4169046;28;20056;-69
2023/12/14 05:23:19;;;;;;;12.00;9.00;;;;;;;7.67;67.94;93547.66;4175004;28;20136;-70
2023/12/14 05:25:21;;;;;;;11.70;8.77;;;;;;;7.70;67.67;93555.97;4176944;28;20037;-69
2023/12/14 05:27:24;;;;;;;13.43;9.20;;;;;;;7.70;67.85;93553.38;4170810;28;20140;-69
2023/12/14 05:29:26;;;;;;;17.20;10.02;;;;;;;7.51;68.13;93538.94;4173076;28;20053;-72
2023/12/14 05:31:28;;;;;;;15.85;9.10;;;;;;;7.41;68.95;93558.34;4168801;28;20407;-69
2023/12/14 05:33:31;;;;;;;14.38;9.32;;;;;;;7.42;69.07;93550.38;4176077;28;20079;-70
2023/12/14 05:35:33;;;;;;;18.05;9.63;;;;;;;7.46;69.15;93569.09;4163498;28;20120;-68
2023/12/14 05:37:35;;;;;;;11.80;8.60;;;;;;;7.50;68.69;93563.34;4169384;28;20099;-68
2023/12/14 05:39:37;;;;;;;11.88;8.73;;;;;;;7.56;68.08;93567.09;4166270;28;20421;-69
2023/12/14 05:41:41;;;;;;;14.70;9.95;;;;;;;7.66;68.67;93572.94;4172348;28;20053;-70
2023/12/14 05:43:43;;;;;;;14.63;9.68;;;;;;;7.51;68.16;93575.44;4165860;28;20051;-70
2023/12/14 05:45:46;;;;;;;16.48;11.70;;;;;;;7.49;68.27;93569.56;4176805;28;20156;-70
2023/12/14 05:47:47;;;;;;;19.52;11.35;;;;;;;7.33;69.17;93559.19;4177625;28;20075;-71
2023/12/14 05:49:49;;;;;;;24.70;11.45;;;;;;;7.41;69.42;93558.34;4177153;28;20073;-69
2023/12/14 05:51:52;;;;;;;15.13;10.13;;;;;;;7.54;69.02;93587.31;4177226;28;20126;-69
2023/12/14 05:53:53;;;;;;;14.50;11.00;;;;;;;7.62;68.79;93571.66;4177564;28;20053;-70
2023/12/14 05:55:55;;;;;;;15.40;10.68;;;;;;;7.64;68.60;93569.69;4174400;28;20447;-69
2023/12/14 05:57:57;;;;;;;20.38;10.98;;;;;;;7.71;68.04;93570.63;4175111;28;20094;-69
2023/12/14 05:59:59;;;;;;;20.95;12.48;;;;;;;7.68;68.11;93572.75;4175701;28;20053;-69
2023/12/14 06:02:02;;;;;;;17.73;11.40;;;;;;;7.74;68.03;93588.56;4177268;28;20059;-69
2023/12/14 06:04:04;;;;;;;19.15;10.38;;;;;;;7.79;67.80;93585.44;4176257;28;20053;-71
2023/12/14 06:06:06;;;;;;;14.85;10.35;;;;;;;7.75;68.25;93582.34;4174606;28;20067;-72
2023/12/14 06:08:08;;;;;;;16.15;11.02;;;;;;;7.86;68.40;93583.75;4168870;28;20041;-70
2023/12/14 06:10:10;;;;;;;14.70;10.02;;;;;;;7.92;67.43;93579.69;4186326;28;20059;-69
2023/12/14 06:12:13;;;;;;;14.77;10.68;;;;;;;7.97;67.27;93593.00;4175986;28;20111;-72
2023/12/14 06:14:15;;;;;;;19.15;11.82;;;;;;;7.98;66.86;93579.00;4177400;28;20041;-69
2023/12/14 06:16:17;;;;;;;17.23;11.60;;;;;;;7.95;66.96;93584.53;4169808;28;20057;-69
2023/12/14 06:18:19;;;;;;;20.70;11.10;;;;;;;7.98;66.81;93585.03;4162607;28;20072;-70
2023/12/14 06:20:22;;;;;;;20.45;13.35;;;;;;;7.99;67.83;93586.63;4175636;28;20053;-71
2023/12/14 06:22:24;;;;;;;17.35;11.90;;;;;;;8.03;67.04;93602.75;4177739;28;20136;-69
2023/12/14 06:24:26;;;;;;;17.92;12.55;;;;;;;8.07;66.83;93592.81;4166791;28;20049;-71
2023/12/14 06:26:28;;;;;;;17.20;11.60;;;;;;;8.10;66.86;93603.69;4162534;28;20103;-70
2023/12/14 06:28:32;;;;;;;16.73;11.55;;;;;;;8.13;66.88;93615.56;4161569;28;20451;-70
2023/12/14 06:30:34;;;;;;;16.02;11.07;;;;;;;8.14;67.10;93594.53;4178308;28;20080;-71
2023/12/14 06:32:36;;;;;;;16.65;11.25;;;;;;;8.16;66.71;93602.22;4177513;28;20191;-70
2023/12/14 06:34:39;;;;;;;15.15;11.35;;;;;;;8.12;66.42;93593.91;4178459;28;20049;-71
2023/12/14 06:36:43;;;;;;;20.00;11.75;;;;;;;8.15;66.92;93601.41;4178469;28;20124;-69
2023/12/14 06:38:45;;;;;;;;;;;;;;;8.30;66.83;93606.72;4169442;28;20053;-69
2023/12/14 06:40:47;;;;;;;16.80;10.68;;;;;;;8.32;66.78;93603.91;4178311;28;19964;-70
2023/12/14 06:42:49;;;;;;;20.00;11.05;;;;;;;8.43;66.03;93615.78;4167973;28;20060;-69
2023/12/14 06:44:51;;;;;;;18.98;11.25;;;;;;;8.44;65.92;93606.97;4179995;28;20049;-70
2023/12/14 06:46:54;;;;;;;15.60;11.75;;;;;;;8.44;66.29;93607.78;4169466;28;20046;-71
2023/12/14 06:48:56;;;;;;;21.75;11.98;;;;;;;8.48;66.22;93622.13;4177109;28;20194;-70
2023/12/14 06:50:59;;;;;;;21.33;11.30;;;;;;;8.54;65.05;93623.22;4177557;28;20067;-69
2023/12/14 06:53:00;;;;;;;15.73;11.32;;;;;;;8.60;65.99;93622.53;4178739;28;20066;-69
2023/12/14 06:55:03;;;;;;;15.40;10.85;;;;;;;8.60;65.15;93628.56;4177932;28;20037;-72
2023/12/14 06:57:06;;;;;;;18.33;11.35;;;;;;;8.40;65.72;93625.56;4172237;28;20045;-69
2023/12/14 06:59:08;;;;;;;21.20;10.38;;;;;;;8.46;65.97;93616.25;4174121;28;20053;-70
2023/12/14 07:01:14;;;;;;;15.77;10.85;;;;;;;8.53;65.26;93616.38;4177835;28;20376;-71
2023/12/14 07:03:16;;;;;;;15.65;10.15;;;;;;;8.58;65.87;93609.66;4168763;28;20139;-71
2023/12/14 07:05:19;;;;;;;20.70;13.02;;;;;;;8.59;65.45;93606.06;4173439;28;20385;-70
2023/12/14 07:07:21;;;;;;;27.08;11.88;;;;;;;8.66;65.62;93631.47;4167912;28;20096;-69
2023/12/14 07:09:23;;;;;;;14.73;9.60;;;;;;;8.74;64.66;93628.81;4162282;28;20114;-71
2023/12/14 07:11:25;;;;;;;17.42;9.32;;;;;;;8.73;64.24;93625.41;4185924;28;20052;-70
2023/12/14 07:13:26;;;;;;;12.75;9.48;;;;;;;8.78;64.31;93624.88;4175973;28;20048;-71
2023/12/14 07:15:29;;;;;;;20.38;10.57;;;;;;;8.80;64.53;93639.38;4178070;28;20103;-70
2023/12/14 07:17:30;;;;;;;15.15;9.73;;;;;;;8.96;64.05;93638.41;4174361;28;20271;-69
2023/12/14 07:19:32;;;;;;;17.80;9.90;;;;;;;8.90;63.60;93639.13;4173094;28;20091;-69
2023/12/14 07:21:34;;;;;;;17.23;9.55;;;;;;;8.98;63.68;93636.44;4178762;28;20048;-70
2023/12/14 07:23:37;;;;;;;18.83;10.00;;;;;;;9.08;63.86;93641.44;4165859;28;20087;-69
2023/12/14 07:25:38;;;;;;;13.13;9.10;;;;;;;9.12;63.40;93642.72;4162268;28;20045;-69
2023/12/14 07:27:43;;;;;;;16.08;10.07;;;;;;;9.19;63.66;93642.84;4173248;28;20092;-70
2023/12/14 07:29:45;;;;;;;23.25;10.23;;;;;;;9.31;63.29;93664.13;4177655;28;20534;-70
2023/12/14 07:31:46;;;;;;;17.80;10.52;;;;;;;9.38;62.43;93652.78;4175313;28;20275;-70
2023/12/14 07:33:48;;;;;;;17.83;9.80;;;;;;;9.49;62.27;93633.25;4179391;28;20053;-71
2023/12/14 07:35:50;;;;;;;26.20;10.50;;;;;;;9.55;62.56;93632.53;4176716;28;20048;-70
2023/12/14 07:37:52;;;;;;;20.33;10.25;;;;;;;9.63;61.58;93649.94;4177590;28;20049;-68
2023/12/14 07:39:54;;;;;;;17.67;9.63;;;;;;;9.61;61.74;93634.44;4174665;28;20144;-69
2023/12/14 07:41:56;;;;;;;13.70;9.93;;;;;;;9.66;61.75;93654.81;4175013;28;20049;-71
2023/12/14 07:43:58;;;;;;;13.40;9.55;;;;;;;9.66;61.18;93649.59;4166873;28;20041;-70
2023/12/14 07:46:01;;;;;;;;;;;;;;;9.75;61.75;93658.97;4174328;28;20047;-69
2023/12/14 07:48:06;;;;;;;17.77;9.70;;;;;;;9.79;61.15;93648.97;4178125;28;19920;-70
2023/12/14 07:50:08;;;;;;;31.30;10.55;;;;;;;9.80;61.28;93645.34;4174504;28;20516;-70
2023/12/14 07:52:11;;;;;;;28.50;10.35;;;;;;;9.80;60.53;93653.19;4177656;28;20527;-72
2023/12/14 07:54:12;;;;;;;17.10;10.48;;;;;;;9.76;61.02;93649.31;4178363;28;20057;-71
2023/12/14 07:56:14;;;;;;;20.20;9.45;;;;;;;9.64;61.34;93657.59;4177063;28;20147;-70
2023/12/14 07:58:17;;;;;;;17.30;9.35;;;;;;;9.75;61.81;93663.38;4176072;28;20072;-71
2023/12/14 08:00:19;;;;;;;14.95;8.57;;;;;;;9.83;60.73;93676.38;4169902;28;20065;-70
2023/12/14 08:02:20;;;;;;;18.75;9.38;;;;;;;9.89;60.72;93667.00;4178538;28;20053;-70
2023/12/14 08:04:23;;;;;;;16.67;8.93;;;;;;;9.88;61.30;93673.22;4177200;28;20088;-71
2023/12/14 08:06:25;;;;;;;14.60;9.15;;;;;;;9.99;60.86;93670.97;4168243;28;20088;-70
2023/12/14 08:08:27;;;;;;;16.88;9.70;;;;;;;10.12;60.38;93659.88;4168696;28;20102;-70
2023/12/14 08:10:29;;;;;;;28.10;10.27;;;;;;;10.27;60.13;93656.44;4160717;28;20053;-69
2023/12/14 08:12:30;;;;;;;21.90;9.45;;;;;;;10.38;59.92;93658.59;4178824;28;20123;-70
2023/12/14 08:14:38;;;;;;;22.13;9.38;;;;;;;10.47;59.68;93652.25;4166167;28;20067;-70
2023/12/14 08:16:40;;;;;;;20.52;8.13;;;;;;;10.55;59.70;93654.78;4173034;28;20459;-70
2023/12/14 08:18:44;;;;;;;14.10;7.93;;;;;;;10.56;59.11;93681.78;4173356;28;20099;-70
2023/12/14 08:20:46;;;;;;;14.88;7.78;;;;;;;10.61;59.12;93666.34;4165133;28;20076;-71
2023/12/14 08:22:48;;;;;;;21.90;9.52;;;;;;;10.56;59.16;93666.06;4168066;28;20114;-70
2023/12/14 08:24:50;;;;;;;12.75;6.82;;;;;;;10.56;59.28;93671.28;4177030;28;20057;-70
2023/12/14 08:26:52;;;;;;;16.17;7.97;;;;;;;10.69;59.03;93668.00;4172914;28;20045;-70
2023/12/14 08:28:53;;;;;;;35.30;11.07;;;;;;;10.72;59.22;93660.59;4178182;28;20045;-72
2023/12/14 08:30:58;;;;;;;24.63;8.90;;;;;;;10.78;58.65;93669.53;4177678;28;20056;-72
2023/12/14 08:33:00;;;;;;;22.75;9.05;;;;;;;10.79;59.21;93666.72;4162918;28;20152;-71
2023/12/14 08:35:02;;;;;;;23.17;8.75;;;;;;;10.88;58.71;93691.00;4162579;28;20107;-69
2023/12/14 08:37:04;;;;;;;22.10;10.32;;;;;;;10.80;59.17;93659.69;4175540;28;20041;-69
2023/12/14 08:39:06;;;;;;;29.15;10.40;;;;;;;10.81;59.29;93666.53;4168171;28;20055;-71
2023/12/14 08:41:13;;;;;;;19.75;8.68;;;;;;;10.87;58.92;93681.53;4177263;28;20333;-70
2023/12/14 08:43:15;;;;;;;18.50;8.30;;;;;;;10.87;58.33;93657.94;4178516;28;20055;-70
2023/12/14 08:45:17;;;;;;;24.35;9.55;;;;;;;11.00;58.20;93673.78;4172929;28;20100;-71
2023/12/14 08:47:19;;;;;;;14.90;7.78;;;;;;;11.02;58.13;93671.78;4176953;28;20524;-70
2023/12/14 08:49:23;;;;;;;15.65;7.80;;;;;;;11.09;58.19;93677.09;4175780;28;20084;-70
2023/12/14 08:51:26;;;;;;;14.02;7.88;;;;;;;11.22;57.92;93684.28;4177608;28;20369;-72
2023/12/14 08:53:29;;;;;;;15.60;8.10;;;;;;;11.22;57.68;93673.78;4176717;28;20123;-71
2023/12/14 08:55:31;;;;;;;13.00;7.50;;;;;;;11.29;57.56;93672.03;4159442;28;20056;-71
2023/12/14 08:57:34;;;;;;;15.38;7.38;;;;;;;11.27;57.83;93668.78;4178429;28;20488;-70
2023/12/14 08:59:36;;;;;;;13.80;7.43;;;;;;;11.39;57.16;93672.53;4176651;28;20534;-71
2023/12/14 09:01:39;;;;;;;16.00;6.95;;;;;;;11.44;57.28;93664.94;4178884;28;20049;-71
2023/12/14 09:03:41;;;;;;;13.05;7.28;;;;;;;11.44;57.40;93678.03;4170033;28;20049;-72
2023/12/14 09:05:44;;;;;;;12.10;7.57;;;;;;;11.59;56.83;93674.50;4173126;28;20136;-70
2023/12/14 09:07:46;;;;;;;16.83;8.05;;;;;;;11.69;56.65;93669.75;4172808;28;20103;-72
2023/12/14 09:09:48;;;;;;;19.35;8.73;;;;;;;11.77;56.21;93669.59;4169340;28;20542;-71
2023/12/14 09:11:49;;;;;;;22.65;7.82;;;;;;;11.88;56.34;93671.72;4167425;28;20123;-70
2023/12/14 09:13:55;;;;;;;19.27;8.05;;;;;;;11.94;55.88;93675.41;4176088;28;20565;-70
2023/12/14 09:15:57;;;;;;;20.35;6.95;;;;;;;12.01;55.72;93657.88;4173507;28;20401;-69
2023/12/14 09:17:58;;;;;;;13.65;7.80;;;;;;;12.05;55.69;93666.19;4163887;28;20053;-70
2023/12/14 09:20:01;;;;;;;13.05;7.05;;;;;;;12.02;55.40;93662.13;4173449;28;20055;-71
2023/12/14 09:22:04;;;;;;;15.73;7.50;;;;;;;11.98;55.81;93662.69;4161201;28;20045;-68
2023/12/14 09:24:06;;;;;;;14.63;7.00;;;;;;;11.99;55.32;93664.31;4177624;28;20045;-71
2023/12/14 09:26:12;;;;;;;12.10;7.82;;;;;;;12.00;55.81;93658.88;4168006;28;20409;-70
2023/12/14 09:28:14;;;;;;;11.45;6.57;;;;;;;12.04;55.75;93651.41;4165384;28;20084;-70
2023/12/14 09:30:17;;;;;;;10.48;6.70;;;;;;;12.02;55.68;93669.16;4174960;28;20521;-69